Time;durP1;ratioP1;P1;durP2;ratioP2;P2;SDS_P1;SDS_P2;PMS_P1;PMS_P2;Temp;Humidity;BMP_temperature;BMP_pressure;BME280_temperature;BME280_humidity;BME280_pressure;Samples;Min_cycle;Max_cycle;Signal;HPM_P1;HPM_P2
2023/12/11 00:01:05;;;;;;;;;15.00;14.00;;;;;21.06;28.08;101245.27;246147;1180;72691;-61
2023/12/11 00:06:16;;;;;;;;;15.50;15.25;;;;;21.07;28.24;101246.15;246123;1180;73778;-62
2023/12/11 00:11:19;;;;;;;;;17.00;17.00;;;;;21.07;28.15;101244.10;246180;1177;57468;-61
2023/12/11 00:16:22;;;;;;;;;15.33;15.33;;;;;21.06;28.19;101243.84;246167;1176;57541;-62
2023/12/11 00:21:25;;;;;;;;;14.00;13.00;;;;;21.06;28.32;101245.30;246156;1175;57486;-62
2023/12/11 00:26:28;;;;;;;;;17.00;14.00;;;;;21.06;28.18;101253.51;246171;1176;57587;-62
2023/12/11 00:31:31;;;;;;;;;15.33;15.33;;;;;21.05;28.18;101258.27;246193;1176;57521;-61
2023/12/11 00:36:34;;;;;;;;;17.00;17.00;;;;;21.05;28.26;101266.30;246153;1179;57561;-62
2023/12/11 00:41:37;;;;;;;;;17.67;14.00;;;;;21.04;28.44;101260.03;246183;1188;57794;-61
2023/12/11 00:46:40;;;;;;;;;15.33;15.33;;;;;21.05;28.27;101259.10;246162;1180;57511;-61
2023/12/11 00:51:43;;;;;;;;;18.00;15.00;;;;;21.05;28.29;101258.90;246167;1178;57774;-61
2023/12/11 00:56:47;;;;;;;;;12.50;11.75;;;;;21.05;28.27;101256.76;246178;1177;57546;-61
2023/12/11 01:01:50;;;;;;;;;16.00;14.67;;;;;21.04;28.31;101263.51;246190;1177;57603;-61
2023/12/11 01:06:53;;;;;;;;;16.75;16.00;;;;;21.04;28.26;101256.51;246157;1180;57607;-61
2023/12/11 01:11:56;;;;;;;;;16.75;13.50;;;;;21.03;28.32;101249.27;246163;1179;57477;-61
2023/12/11 01:16:59;;;;;;;;;12.33;12.33;;;;;21.03;28.27;101248.42;246175;1176;57451;-61
2023/12/11 01:22:22;;;;;;;;;17.00;17.00;;;;;21.03;28.28;101249.64;246196;1188;73594;-61
2023/12/11 01:27:25;;;;;;;;;19.33;16.33;;;;;21.03;28.37;101248.35;246174;1176;57527;-62
2023/12/11 01:32:28;;;;;;;;;17.25;14.50;;;;;21.03;28.36;101245.36;246167;1177;57531;-61
2023/12/11 01:37:32;;;;;;;;;14.25;13.25;;;;;21.02;28.40;101243.09;246188;1179;73932;-61
2023/12/11 01:42:35;;;;;;;;;13.50;13.50;;;;;21.02;28.32;101221.33;246200;1179;72456;-61
2023/12/11 01:47:38;;;;;;;;;16.50;16.50;;;;;21.01;28.28;101202.05;246165;1180;73637;-61
2023/12/11 01:52:41;;;;;;;;;16.50;16.50;;;;;21.01;28.43;101192.43;246142;1188;72827;-61
2023/12/11 01:57:44;;;;;;;;;13.33;12.00;;;;;21.01;28.35;101189.59;246187;1180;57478;-61
2023/12/11 02:02:47;;;;;;;;;17.75;13.25;;;;;21.01;28.36;101195.23;246190;1179;57460;-61
2023/12/11 02:07:50;;;;;;;;;14.67;12.67;;;;;21.00;28.47;101193.64;246204;1179;57568;-61
2023/12/11 02:12:53;;;;;;;;;16.00;13.67;;;;;21.00;28.37;101196.23;246172;1176;57537;-61
2023/12/11 02:17:57;;;;;;;;;13.67;13.00;;;;;21.00;28.44;101176.65;246140;1177;57454;-61
2023/12/11 02:23:03;;;;;;;;;16.33;13.33;;;;;21.00;28.44;101180.47;246178;1177;57765;-61
2023/12/11 02:28:07;;;;;;;;;15.50;15.25;;;;;21.00;28.53;101204.80;246166;1176;72329;-61
2023/12/11 02:33:10;;;;;;;;;15.00;14.00;;;;;21.00;28.35;101200.25;246187;1179;73801;-61
2023/12/11 02:38:13;;;;;;;;;16.00;14.50;;;;;20.99;28.60;101186.73;246198;1179;73516;-61
2023/12/11 02:43:16;;;;;;;;;14.50;14.50;;;;;20.98;28.50;101178.31;246151;1176;57525;-61
2023/12/11 02:48:19;;;;;;;;;16.75;15.00;;;;;20.98;28.44;101189.40;246164;1177;57693;-61
2023/12/11 02:53:22;;;;;;;;;15.75;14.00;;;;;20.98;28.48;101184.49;246131;1177;73331;-61
2023/12/11 02:58:26;;;;;;;;;16.67;16.67;;;;;20.98;28.51;101186.13;246164;1175;57547;-61
2023/12/11 03:03:29;;;;;;;;;14.25;14.25;;;;;20.98;28.53;101191.82;246177;1180;74116;-61
2023/12/11 03:08:32;;;;;;;;;17.75;16.25;;;;;20.97;28.52;101184.61;246185;1180;74358;-61
2023/12/11 03:13:35;;;;;;;;;17.25;17.00;;;;;20.96;28.68;101185.66;246187;1176;57896;-61
2023/12/11 03:18:38;;;;;;;;;11.75;11.75;;;;;20.96;28.53;101189.72;246191;1177;57537;-61
2023/12/11 03:23:41;;;;;;;;;15.25;15.25;;;;;20.96;28.54;101190.38;246153;1179;57459;-61
2023/12/11 03:28:44;;;;;;;;;16.33;14.67;;;;;20.96;28.50;101181.94;246161;1177;57497;-62
2023/12/11 03:33:47;;;;;;;;;16.00;15.67;;;;;20.96;28.57;101182.23;246034;1177;57921;-61
2023/12/11 03:38:50;;;;;;;;;18.00;17.67;;;;;20.96;28.62;101187.92;246200;1177;57860;-62
2023/12/11 03:43:53;;;;;;;;;22.00;20.00;;;;;20.95;28.59;101194.52;246176;1177;57451;-61
2023/12/11 03:48:56;;;;;;;;;18.67;18.67;;;;;20.95;28.60;101191.13;246191;1176;57568;-61
2023/12/11 03:54:00;;;;;;;;;21.50;19.50;;;;;20.95;28.59;101194.41;246178;1177;57489;-61
2023/12/11 03:59:03;;;;;;;;;15.50;15.25;;;;;20.95;28.53;101199.12;246208;1179;72821;-61
2023/12/11 04:04:06;;;;;;;;;16.33;15.33;;;;;20.94;28.60;101203.94;246170;1179;57432;-61
2023/12/11 04:09:10;;;;;;;;;16.25;15.25;;;;;20.94;28.58;101209.05;246154;1180;73411;-61
2023/12/11 04:14:13;;;;;;;;;17.33;16.00;;;;;20.94;28.70;101214.13;246167;1180;73292;-61
2023/12/11 04:19:16;;;;;;;;;16.50;16.00;;;;;20.98;28.46;101222.06;246137;1176;57596;-61
2023/12/11 04:24:19;;;;;;;;;20.67;19.67;;;;;21.06;28.27;101226.98;246158;1180;57486;-61
2023/12/11 04:29:22;;;;;;;;;16.25;16.25;;;;;21.19;27.95;101227.70;246129;1176;57565;-61
2023/12/11 04:34:25;;;;;;;;;19.75;19.25;;;;;21.34;27.59;101223.42;246159;1177;57473;-61
2023/12/11 04:39:28;;;;;;;;;21.33;21.33;;;;;21.54;27.30;101221.71;246110;1176;57466;-61
2023/12/11 04:44:31;;;;;;;;;26.33;26.33;;;;;21.75;26.73;101210.37;246167;1180;57858;-62
2023/12/11 04:49:34;;;;;;;;;24.67;24.00;;;;;21.95;26.59;101211.13;246163;1176;57803;-61
2023/12/11 04:54:37;;;;;;;;;28.00;27.00;;;;;22.12;26.29;101210.14;246188;1180;57473;-61
2023/12/11 04:59:41;;;;;;;;;26.00;26.00;;;;;22.25;25.99;101204.40;246122;1179;57957;-62
2023/12/11 05:04:46;;;;;;;;;32.25;29.00;;;;;22.31;25.71;101210.44;246175;1179;73129;-61
2023/12/11 05:09:49;;;;;;;;;28.75;28.50;;;;;22.32;25.61;101208.33;246182;1177;57542;-61
2023/12/11 05:14:52;;;;;;;;;28.75;27.00;;;;;22.29;25.15;101207.30;246137;1180;72976;-61
2023/12/11 05:19:55;;;;;;;;;36.00;32.00;;;;;22.29;25.20;101201.75;246116;1177;57539;-61
2023/12/11 05:24:58;;;;;;;;;29.25;28.25;;;;;22.34;24.80;101207.94;246168;1178;57544;-61
2023/12/11 05:30:02;;;;;;;;;38.00;35.00;;;;;22.40;24.72;101213.27;246099;1179;73572;-61
2023/12/11 05:35:08;;;;;;;;;35.50;33.25;;;;;22.48;24.70;101206.95;246031;1180;73880;-61
2023/12/11 05:40:11;;;;;;;;;29.00;29.00;;;;;22.55;24.79;101200.13;246166;1177;72893;-62
2023/12/11 05:45:26;;;;;;;;;35.25;32.25;;;;;22.59;24.91;101201.77;245945;1180;73288;-61
2023/12/11 05:50:29;;;;;;;;;35.00;31.75;;;;;22.63;25.30;101193.09;245890;1183;73346;-61
2023/12/11 05:55:36;;;;;;;;;33.00;30.67;;;;;22.68;26.82;101191.95;245853;1180;73229;-62
2023/12/11 06:00:39;;;;;;;;;35.00;32.50;;;;;22.88;28.20;101185.11;245736;1180;73752;-61
2023/12/11 06:05:43;;;;;;;;;42.25;34.00;;;;;23.18;29.05;101185.50;245806;1177;73798;-62
2023/12/11 06:10:46;;;;;;;;;35.75;33.50;;;;;23.46;30.11;101191.85;245893;1179;73354;-63
2023/12/11 06:15:49;;;;;;;;;34.67;29.33;;;;;23.77;30.40;101204.55;245812;1175;58036;-62
2023/12/11 06:20:53;;;;;;;;;35.00;32.50;;;;;24.00;30.35;101209.63;245719;1176;74011;-63
2023/12/11 06:26:03;;;;;;;;;35.00;33.33;;;;;24.16;30.28;101208.66;245848;1180;73054;-63
2023/12/11 06:31:06;;;;;;;;;39.75;35.00;;;;;24.31;30.33;101205.14;245874;1177;73100;-63
2023/12/11 06:36:11;;;;;;;;;35.00;30.25;;;;;24.44;30.60;101204.60;246014;1176;57538;-65
2023/12/11 06:41:15;;;;;;;;;34.50;31.50;;;;;24.60;30.53;101210.38;246064;1180;73251;-63
2023/12/11 06:46:20;;;;;;;;;33.25;31.50;;;;;24.72;30.54;101219.25;246016;1180;73736;-65
2023/12/11 06:51:25;;;;;;;;;38.00;33.00;;;;;24.83;30.52;101227.27;245851;1180;73215;-63
2023/12/11 06:56:31;;;;;;;;;34.50;32.50;;;;;24.82;30.14;101228.67;245936;1180;74459;-63
2023/12/11 07:01:35;;;;;;;;;34.25;31.75;;;;;24.63;30.05;101220.74;245950;1180;74090;-63
2023/12/11 07:06:38;;;;;;;;;32.00;30.00;;;;;24.55;30.13;101217.27;245908;1177;74134;-65
2023/12/11 07:11:42;;;;;;;;;37.25;32.50;;;;;24.72;30.16;101219.52;246046;1175;74245;-64
2023/12/11 07:16:45;;;;;;;;;34.50;32.00;;;;;24.92;30.20;101214.15;246035;1176;74341;-62
2023/12/11 07:21:48;;;;;;;;;34.67;33.00;;;;;25.06;30.23;101206.50;245992;1176;57717;-63
2023/12/11 07:26:52;;;;;;;;;30.75;29.00;;;;;25.13;30.29;101215.23;245966;1176;72822;-63
2023/12/11 07:31:55;;;;;;;;;34.75;33.25;;;;;25.21;30.23;101204.21;245984;1176;73667;-62
2023/12/11 07:36:58;;;;;;;;;34.33;31.33;;;;;25.28;29.92;101191.63;245911;1176;57599;-64
2023/12/11 07:42:01;;;;;;;;;39.00;33.25;;;;;25.34;29.97;101190.80;245948;1176;74396;-63
2023/12/11 07:47:04;;;;;;;;;36.50;33.75;;;;;25.37;29.99;101193.96;246004;1180;57694;-62
2023/12/11 07:52:07;;;;;;;;;36.00;33.00;;;;;25.43;29.98;101201.65;246012;1176;57621;-64
2023/12/11 07:57:10;;;;;;;;;44.00;35.33;;;;;25.44;29.71;101202.36;245935;1177;73604;-65
2023/12/11 08:02:13;;;;;;;;;39.25;34.50;;;;;25.23;29.39;101203.85;245955;1180;74732;-63
2023/12/11 08:07:18;;;;;;;;;42.25;36.75;;;;;25.15;27.80;101196.44;245965;1175;73276;-63
2023/12/11 08:12:21;;;;;;;;;38.50;34.25;;;;;25.09;28.12;101192.88;245998;1180;73715;-63
2023/12/11 08:17:24;;;;;;;;;39.25;33.00;;;;;25.19;28.73;101182.76;246077;1177;72072;-62
2023/12/11 08:22:27;;;;;;;;;38.00;34.00;;;;;25.29;29.25;101173.63;245986;1176;74006;-62
2023/12/11 08:27:30;;;;;;;;;42.67;35.00;;;;;25.42;29.68;101176.34;245920;1176;58311;-64
2023/12/11 08:32:37;;;;;;;;;39.25;34.00;;;;;25.51;29.72;101170.23;245874;1176;73274;-61
2023/12/11 08:37:41;;;;;;;;;38.75;34.00;;;;;25.60;29.87;101167.86;245850;1180;74297;-63
2023/12/11 08:42:44;;;;;;;;;33.75;31.00;;;;;25.70;30.33;101168.59;245945;1176;72794;-62
2023/12/11 08:47:47;;;;;;;;;33.00;30.75;;;;;25.76;30.43;101167.90;245926;1177;57526;-63
2023/12/11 08:52:50;;;;;;;;;36.00;30.50;;;;;25.80;30.70;101167.21;245885;1179;73797;-61
2023/12/11 08:57:54;;;;;;;;;68.33;54.67;;;;;25.77;29.76;101168.69;245873;1176;73069;-63
2023/12/11 09:02:57;;;;;;;;;69.00;54.00;;;;;25.47;28.45;101167.61;245849;1175;72979;-62
2023/12/11 09:08:01;;;;;;;;;60.33;49.67;;;;;25.45;28.99;101159.96;245858;1176;74267;-62
2023/12/11 09:13:04;;;;;;;;;58.25;48.50;;;;;25.55;29.48;101148.81;245938;1176;74052;-62
2023/12/11 09:18:08;;;;;;;;;57.67;47.33;;;;;25.67;29.85;101132.93;245970;1180;73315;-61
2023/12/11 09:23:11;;;;;;;;;54.00;45.25;;;;;25.77;30.38;101130.02;245817;1179;74371;-63
2023/12/11 09:28:15;;;;;;;;;60.00;47.25;;;;;25.89;30.60;101119.45;245870;1177;73559;-62
2023/12/11 09:33:18;;;;;;;;;50.33;41.00;;;;;25.99;30.71;101116.40;246014;1177;73344;-62
2023/12/11 09:38:22;;;;;;;;;50.50;41.50;;;;;26.04;31.02;101117.20;245839;1179;74650;-64
2023/12/11 09:43:25;;;;;;;;;52.67;43.33;;;;;26.10;31.08;101120.11;245985;1177;57596;-61
2023/12/11 09:48:28;;;;;;;;;49.50;39.50;;;;;26.14;30.95;101118.61;245961;1176;74267;-63
2023/12/11 09:53:32;;;;;;;;;45.50;38.25;;;;;26.19;31.01;101122.41;245990;1177;73336;-63
2023/12/11 09:58:35;;;;;;;;;45.75;38.25;;;;;26.24;30.77;101127.98;245794;1177;74132;-62
2023/12/11 10:03:39;;;;;;;;;45.75;37.75;;;;;26.28;31.00;101126.87;245755;1177;74356;-62
2023/12/11 10:08:44;;;;;;;;;51.75;42.00;;;;;26.00;28.55;101117.71;245817;1176;73440;-62
2023/12/11 10:13:47;;;;;;;;;56.50;43.50;;;;;25.57;28.92;101126.48;246077;1180;71993;-62
2023/12/11 10:18:53;;;;;;;;;48.75;40.25;;;;;25.35;28.92;101130.67;246014;1179;73552;-63
2023/12/11 10:24:09;;;;;;;;;44.50;38.75;;;;;25.19;28.69;101131.71;245955;1179;72992;-62
2023/12/11 10:29:31;;;;;;;;;48.00;40.00;;;;;25.03;28.42;101131.58;246056;1177;73495;-61
2023/12/11 10:34:50;;;;;;;;;41.25;35.75;;;;;24.89;27.87;101134.35;245958;1179;73670;-62
2023/12/11 10:39:54;;;;;;;;;43.67;37.33;;;;;24.78;27.47;101137.17;245985;1180;73392;-63
2023/12/11 10:44:57;;;;;;;;;43.75;37.25;;;;;24.68;27.47;101140.20;246105;1180;73193;-62
2023/12/11 10:50:02;;;;;;;;;45.25;38.50;;;;;24.61;26.93;101133.87;245886;1180;73877;-62
2023/12/11 10:55:06;;;;;;;;;43.00;36.50;;;;;24.41;26.06;101126.38;245740;1176;72476;-63
2023/12/11 11:00:13;;;;;;;;;48.00;40.75;;;;;24.31;25.55;101121.34;245622;1176;74666;-62
2023/12/11 11:05:17;;;;;;;;;54.00;44.50;;;;;24.14;24.89;101118.08;245594;1180;73068;-63
2023/12/11 11:10:25;;;;;;;;;51.00;42.00;;;;;23.89;24.11;101113.04;245936;1180;72839;-61
2023/12/11 11:15:28;;;;;;;;;49.75;41.00;;;;;23.45;23.49;101107.70;245884;1180;74151;-62
2023/12/11 11:20:36;;;;;;;;;51.00;42.50;;;;;23.11;23.54;101096.16;245758;1180;57845;-63
2023/12/11 11:25:40;;;;;;;;;52.33;43.00;;;;;22.98;23.87;101099.98;246004;1179;73272;-60
2023/12/11 11:30:46;;;;;;;;;44.67;37.67;;;;;23.15;24.18;101100.22;246047;1180;73846;-62
2023/12/11 11:35:51;;;;;;;;;46.67;38.67;;;;;23.35;24.03;101099.59;245993;1176;72530;-63
2023/12/11 11:40:54;;;;;;;;;42.75;36.25;;;;;23.48;24.03;101091.59;246002;1176;74356;-61
2023/12/11 11:45:58;;;;;;;;;45.75;37.50;;;;;23.58;24.11;101073.27;245976;1183;57545;-62
2023/12/11 11:51:01;;;;;;;;;50.00;41.25;;;;;23.67;23.86;101067.36;245905;1179;72901;-61
2023/12/11 11:56:04;;;;;;;;;42.75;36.00;;;;;23.76;23.87;101060.88;245816;1178;57795;-60
2023/12/11 12:01:08;;;;;;;;;47.67;40.00;;;;;23.84;24.22;101046.97;245926;1180;74221;-61
2023/12/11 12:06:13;;;;;;;;;41.50;35.75;;;;;23.91;23.99;101031.95;246007;1180;73433;-61
2023/12/11 12:11:16;;;;;;;;;40.33;36.33;;;;;23.96;24.15;101030.31;245880;1177;73362;-61
2023/12/11 12:16:29;;;;;;;;;48.75;38.75;;;;;23.99;24.16;101021.89;246114;1177;57489;-64
2023/12/11 12:21:46;;;;;;;;;44.00;37.00;;;;;23.98;24.39;101020.80;246105;1180;72646;-62
2023/12/11 12:27:02;;;;;;;;;43.50;37.75;;;;;23.94;24.36;101027.05;246033;1180;72486;-62
2023/12/11 12:32:06;;;;;;;;;47.67;39.00;;;;;23.88;24.36;101028.35;246117;1181;73221;-64
2023/12/11 12:37:11;;;;;;;;;38.50;34.25;;;;;23.79;24.55;101021.99;246090;1179;73453;-62
2023/12/11 12:42:15;;;;;;;;;42.75;36.75;;;;;23.71;24.70;101012.94;246155;1177;73214;-64
2023/12/11 12:47:19;;;;;;;;;45.25;37.50;;;;;23.64;24.75;101006.75;246108;1176;57708;-64
2023/12/11 12:52:24;;;;;;;;;44.75;38.00;;;;;23.56;24.55;100995.79;246088;1180;73102;-63
2023/12/11 12:57:34;;;;;;;;;46.00;38.00;;;;;23.48;24.67;100992.86;246156;1179;73445;-61
2023/12/11 13:02:37;;;;;;;;;44.67;35.67;;;;;23.39;24.62;100990.72;246203;1176;74019;-61
2023/12/11 13:07:41;;;;;;;;;41.00;37.33;;;;;23.31;24.67;100985.23;246110;1179;57527;-61
2023/12/11 13:12:44;;;;;;;;;43.25;37.25;;;;;23.23;24.68;100977.30;246108;1180;73919;-63
2023/12/11 13:17:53;;;;;;;;;43.00;37.50;;;;;23.14;24.76;100970.13;246102;1177;57661;-62
2023/12/11 13:22:56;;;;;;;;;48.50;40.00;;;;;23.06;24.54;100973.38;246163;1180;73909;-62
2023/12/11 13:28:00;;;;;;;;;48.00;40.00;;;;;22.97;24.70;100968.80;246255;1179;57510;-63
2023/12/11 13:33:03;;;;;;;;;46.00;38.25;;;;;22.89;24.80;100982.59;246242;1177;72675;-62
2023/12/11 13:38:07;;;;;;;;;46.25;39.50;;;;;22.82;24.81;100974.38;246258;1177;74160;-62
2023/12/11 13:43:11;;;;;;;;;47.50;39.75;;;;;22.75;24.64;100971.45;246257;1176;73239;-63
2023/12/11 13:48:15;;;;;;;;;41.75;36.75;;;;;22.69;24.64;100976.39;246235;1176;74249;-62
2023/12/11 13:53:19;;;;;;;;;43.50;37.00;;;;;22.64;24.76;100971.08;246245;1179;73881;-63
2023/12/11 13:58:22;;;;;;;;;48.67;39.33;;;;;22.59;24.98;100979.19;246246;1177;72952;-62
2023/12/11 14:03:26;;;;;;;;;50.00;40.25;;;;;22.54;24.64;100985.54;246247;1180;73576;-62
2023/12/11 14:08:29;;;;;;;;;45.00;39.00;;;;;22.48;24.76;100977.41;246304;1179;74278;-64
2023/12/11 14:13:32;;;;;;;;;42.67;37.00;;;;;22.44;24.74;100991.80;246172;1180;57795;-62
2023/12/11 14:18:35;;;;;;;;;42.67;37.67;;;;;22.40;24.91;101000.41;246279;1176;57528;-63
2023/12/11 14:23:39;;;;;;;;;45.33;39.00;;;;;22.34;24.87;100994.63;246268;1176;57584;-62
2023/12/11 14:28:42;;;;;;;;;42.25;38.25;;;;;22.29;24.89;100989.95;246246;1179;73198;-64
2023/12/11 14:33:45;;;;;;;;;49.50;37.50;;;;;22.19;25.64;100989.50;246255;1176;73866;-61
2023/12/11 14:38:51;;;;;;;;;46.50;35.50;;;;;22.13;26.58;100985.27;246290;1179;72138;-60
2023/12/11 14:43:54;;;;;;;;;48.00;38.00;;;;;22.07;26.93;100989.31;246272;1179;74200;-63
2023/12/11 14:48:57;;;;;;;;;47.33;37.67;;;;;22.04;26.90;100990.74;246264;1176;57462;-61
2023/12/11 14:54:01;;;;;;;;;40.25;34.25;;;;;22.05;26.86;100987.89;246061;1178;57615;-61
2023/12/11 14:59:04;;;;;;;;;47.25;38.25;;;;;22.05;26.74;100981.14;246144;1180;73007;-62
2023/12/11 15:04:07;;;;;;;;;42.50;36.00;;;;;22.06;26.81;100981.48;246017;1176;74141;-62
2023/12/11 15:09:13;;;;;;;;;46.75;37.25;;;;;22.05;26.76;100979.76;246167;1180;72534;-61
2023/12/11 15:14:16;;;;;;;;;42.75;38.00;;;;;22.05;26.76;100968.20;246143;1177;73407;-61
2023/12/11 15:19:20;;;;;;;;;41.00;36.75;;;;;22.03;26.72;100969.34;246109;1180;73096;-62
2023/12/11 15:24:23;;;;;;;;;48.50;35.50;;;;;22.02;26.91;100971.25;246240;1180;73317;-61
2023/12/11 15:29:26;;;;;;;;;37.00;33.75;;;;;22.01;26.87;100963.46;246267;1177;57575;-60
2023/12/11 15:34:30;;;;;;;;;44.75;38.50;;;;;22.00;26.93;100949.59;246211;1179;57436;-59
2023/12/11 15:39:33;;;;;;;;;35.33;34.33;;;;;21.99;26.90;100953.63;246186;1180;72893;-60
2023/12/11 15:44:36;;;;;;;;;36.00;34.00;;;;;21.98;27.09;100954.76;246133;1179;57542;-61
2023/12/11 15:49:39;;;;;;;;;40.50;34.75;;;;;21.97;27.06;100957.05;246189;1177;73915;-62
2023/12/11 15:54:43;;;;;;;;;44.25;34.75;;;;;21.97;27.01;100964.14;246164;1179;72960;-61
2023/12/11 15:59:46;;;;;;;;;37.75;35.50;;;;;21.96;26.95;100965.90;246164;1181;73617;-60
2023/12/11 16:04:51;;;;;;;;;38.25;36.25;;;;;21.96;27.18;100959.40;246175;1177;73900;-60
2023/12/11 16:09:54;;;;;;;;;35.00;33.00;;;;;21.96;27.24;100949.26;246174;1177;57406;-62
2023/12/11 16:14:58;;;;;;;;;36.00;34.25;;;;;21.96;27.24;100942.93;246166;1179;57501;-62
2023/12/11 16:20:01;;;;;;;;;31.25;30.75;;;;;21.96;27.24;100938.33;246171;1180;73759;-61
2023/12/11 16:25:04;;;;;;;;;44.25;35.75;;;;;21.97;27.30;100933.69;246142;1176;73796;-61
2023/12/11 16:30:09;;;;;;;;;30.75;30.50;;;;;21.98;27.25;100927.02;246208;1180;74257;-61
2023/12/11 16:35:12;;;;;;;;;31.00;29.00;;;;;21.99;27.19;100916.92;246144;1180;73240;-61
2023/12/11 16:40:15;;;;;;;;;33.75;30.75;;;;;21.99;27.25;100923.70;246154;1179;57456;-61
2023/12/11 16:45:18;;;;;;;;;32.50;30.00;;;;;22.00;27.31;100946.59;246159;1179;72716;-61
2023/12/11 16:50:22;;;;;;;;;31.75;26.50;;;;;21.99;27.28;100952.62;246161;1177;57595;-62
2023/12/11 16:55:26;;;;;;;;;33.00;32.33;;;;;21.99;27.52;100942.31;246117;1180;73836;-61
2023/12/11 17:00:29;;;;;;;;;26.75;26.25;;;;;21.98;27.42;100945.88;246144;1179;57466;-61
2023/12/11 17:05:33;;;;;;;;;31.67;27.33;;;;;21.98;27.41;100946.46;246140;1176;57546;-62
2023/12/11 17:10:36;;;;;;;;;31.00;27.75;;;;;21.97;27.64;100952.54;246161;1179;74446;-62
2023/12/11 17:15:39;;;;;;;;;25.25;24.25;;;;;21.98;27.54;100975.33;246157;1177;57607;-62
2023/12/11 17:20:42;;;;;;;;;35.67;29.33;;;;;21.98;27.82;100985.05;246170;1179;57451;-60
2023/12/11 17:25:45;;;;;;;;;30.00;30.00;;;;;21.97;27.87;100986.81;246125;1175;57534;-61
2023/12/11 17:30:51;;;;;;;;;31.50;31.50;;;;;21.97;27.84;100994.55;246172;1176;57801;-61
2023/12/11 17:35:55;;;;;;;;;30.00;29.00;;;;;21.97;27.82;100992.75;246185;1180;72808;-62
2023/12/11 17:40:59;;;;;;;;;27.25;26.25;;;;;21.96;28.11;100985.95;246175;1179;57534;-61
2023/12/11 17:46:03;;;;;;;;;33.75;27.00;;;;;21.95;27.96;100977.00;246174;1180;73584;-60
2023/12/11 17:51:07;;;;;;;;;26.75;26.50;;;;;21.95;27.99;100975.20;246183;1177;73514;-60
2023/12/11 17:56:16;;;;;;;;;31.50;31.50;;;;;21.95;28.05;100966.83;246172;1180;74052;-60
2023/12/11 18:01:19;;;;;;;;;28.00;28.00;;;;;21.94;28.02;100973.86;246150;1180;73212;-60
2023/12/11 18:06:22;;;;;;;;;35.50;28.50;;;;;21.93;28.18;100979.45;246177;1179;73072;-61
2023/12/11 18:11:25;;;;;;;;;38.25;32.25;;;;;21.92;28.09;100966.98;246157;1179;72643;-61
2023/12/11 18:16:34;;;;;;;;;28.00;27.00;;;;;21.93;28.25;100967.67;246151;1180;57649;-62
2023/12/11 18:21:40;;;;;;;;;34.25;31.00;;;;;21.92;28.17;100966.46;246188;1180;73032;-61
2023/12/11 18:26:45;;;;;;;;;32.67;32.67;;;;;21.91;28.20;100956.23;246148;1177;72766;-60
2023/12/11 18:31:49;;;;;;;;;28.25;26.50;;;;;21.91;28.26;100941.77;246158;1179;73601;-61
2023/12/11 18:36:52;;;;;;;;;26.50;26.50;;;;;21.90;28.19;100937.49;246176;1176;57465;-61
2023/12/11 18:41:55;;;;;;;;;26.25;26.25;;;;;21.90;28.20;100926.77;246183;1179;73495;-60
2023/12/11 18:46:58;;;;;;;;;26.33;26.00;;;;;21.89;28.18;100908.93;246186;1180;73073;-61
2023/12/11 18:52:02;;;;;;;;;26.25;24.50;;;;;21.89;28.10;100890.46;246015;1176;73813;-61
2023/12/11 18:57:05;;;;;;;;;29.75;29.75;;;;;21.88;28.22;100881.84;246171;1177;73215;-61
2023/12/11 19:02:08;;;;;;;;;30.00;25.25;;;;;21.88;28.22;100889.09;246167;1179;57357;-60
2023/12/11 19:07:14;;;;;;;;;33.50;27.75;;;;;21.88;28.36;100890.97;246164;1180;73678;-61
2023/12/11 19:12:17;;;;;;;;;28.67;26.33;;;;;21.87;28.53;100876.17;246202;1177;73793;-62
2023/12/11 19:17:20;;;;;;;;;26.75;25.00;;;;;21.86;28.38;100875.21;246167;1188;57501;-62
2023/12/11 19:22:23;;;;;;;;;25.00;24.00;;;;;21.87;28.41;100886.19;246166;1180;73012;-62
2023/12/11 19:27:27;;;;;;;;;27.75;26.75;;;;;21.86;28.53;100879.02;246169;1180;57495;-61
2023/12/11 19:32:30;;;;;;;;;24.67;24.33;;;;;21.85;28.35;100873.71;246168;1179;73095;-61
2023/12/11 19:37:33;;;;;;;;;19.67;19.67;;;;;21.85;28.46;100879.23;246188;1180;57552;-62
2023/12/11 19:42:46;;;;;;;;;24.25;24.25;;;;;21.84;28.51;100887.48;246139;1181;73036;-62
2023/12/11 19:47:50;;;;;;;;;26.25;25.25;;;;;21.84;28.55;100890.59;246150;1179;73287;-62
2023/12/11 19:52:53;;;;;;;;;23.25;23.25;;;;;21.84;28.54;100888.04;246169;1179;72822;-62
2023/12/11 19:57:56;;;;;;;;;23.75;21.50;;;;;21.84;28.55;100891.52;246174;1177;57514;-60
2023/12/11 20:02:59;;;;;;;;;22.25;22.25;;;;;21.84;28.66;100893.03;246167;1175;57515;-62
2023/12/11 20:08:02;;;;;;;;;19.25;19.25;;;;;21.83;28.67;100895.42;246161;1176;73267;-60
2023/12/11 20:13:05;;;;;;;;;28.50;28.00;;;;;21.83;28.58;100883.52;246171;1175;74762;-61
2023/12/11 20:18:12;;;;;;;;;27.00;25.50;;;;;21.83;28.56;100874.27;246178;1177;57832;-61
2023/12/11 20:23:15;;;;;;;;;28.25;26.25;;;;;21.82;28.54;100857.13;246175;1177;73448;-61
2023/12/11 20:28:18;;;;;;;;;23.00;22.00;;;;;21.81;28.83;100837.48;246158;1177;57851;-60
2023/12/11 20:33:22;;;;;;;;;23.00;22.50;;;;;21.80;28.70;100818.89;246173;1179;74407;-62
2023/12/11 20:38:25;;;;;;;;;25.33;22.67;;;;;21.80;28.68;100793.02;246132;1180;73295;-61
2023/12/11 20:43:28;;;;;;;;;26.00;24.50;;;;;21.80;28.57;100786.05;246141;1176;57488;-61
2023/12/11 20:48:31;;;;;;;;;27.33;27.33;;;;;21.80;28.65;100789.36;246174;1175;57353;-60
2023/12/11 20:53:37;;;;;;;;;25.25;25.25;;;;;21.79;28.72;100806.11;246156;1179;57440;-61
2023/12/11 20:58:40;;;;;;;;;25.75;24.50;;;;;21.79;28.67;100835.45;246156;1179;72921;-61
2023/12/11 21:03:43;;;;;;;;;23.75;23.75;;;;;21.79;28.79;100827.77;246164;1177;57442;-62
2023/12/11 21:08:47;;;;;;;;;24.75;23.75;;;;;21.78;28.64;100809.73;246186;1180;74225;-60
2023/12/11 21:13:51;;;;;;;;;24.50;24.50;;;;;21.78;28.84;100787.08;246185;1179;72802;-60
2023/12/11 21:18:55;;;;;;;;;25.00;23.50;;;;;21.77;28.83;100807.48;246167;1179;73051;-60
2023/12/11 21:23:58;;;;;;;;;26.50;26.50;;;;;21.78;28.81;100832.70;246178;1180;73233;-61
2023/12/11 21:29:01;;;;;;;;;26.75;26.75;;;;;21.77;28.74;100829.91;246200;1179;57504;-61
2023/12/11 21:34:04;;;;;;;;;25.67;22.67;;;;;21.76;28.77;100853.23;246187;1176;57743;-61
2023/12/11 21:39:07;;;;;;;;;28.50;25.00;;;;;21.76;28.98;100850.02;246216;1180;73753;-62
2023/12/11 21:44:10;;;;;;;;;23.25;23.25;;;;;21.75;28.89;100849.34;246188;1177;57458;-61
2023/12/11 21:49:17;;;;;;;;;22.33;22.33;;;;;21.75;29.05;100867.57;246173;1179;57764;-60
2023/12/11 21:54:22;;;;;;;;;25.50;25.00;;;;;21.75;29.03;100877.03;246174;1176;74108;-61
2023/12/11 21:59:25;;;;;;;;;22.75;21.75;;;;;21.74;28.75;100874.11;246199;1179;72773;-62
2023/12/11 22:04:44;;;;;;;;;24.50;23.75;;;;;21.73;28.84;100881.56;246173;1179;75056;-61
2023/12/11 22:09:47;;;;;;;;;24.50;21.75;;;;;21.72;28.96;100877.36;246183;1180;57594;-61
2023/12/11 22:14:50;;;;;;;;;27.75;27.00;;;;;21.72;28.76;100866.34;246163;1180;72807;-60
2023/12/11 22:19:54;;;;;;;;;28.67;26.67;;;;;21.72;28.89;100871.78;246122;1175;57364;-62
2023/12/11 22:24:57;;;;;;;;;26.25;26.25;;;;;21.71;28.97;100869.79;246191;1179;73751;-60
2023/12/11 22:30:00;;;;;;;;;22.33;21.33;;;;;21.71;28.74;100875.73;246192;1179;73582;-60
2023/12/11 22:35:03;;;;;;;;;23.25;23.25;;;;;21.70;28.96;100853.88;246178;1177;57793;-60
2023/12/11 22:40:07;;;;;;;;;23.75;22.75;;;;;21.69;28.72;100836.92;246181;1177;73399;-61
2023/12/11 22:45:11;;;;;;;;;24.00;23.00;;;;;21.69;29.01;100828.60;246189;1176;73430;-61